createdAt,value
2018-09-05T00:00:01.650Z,20.00
2018-09-05T00:02:30.428Z,25.53
2018-09-05T00:04:59.217Z,24.87
2018-09-05T00:07:27.956Z,21.63
2018-09-05T00:09:56.681Z,24.00
2018-09-05T00:12:25.418Z,26.23
2018-09-05T00:14:54.224Z,20.40
2018-09-05T00:17:22.972Z,24.13
2018-09-05T00:19:51.770Z,24.10
2018-09-05T00:22:20.614Z,19.00
2018-09-05T00:24:49.353Z,25.73
2018-09-05T00:27:18.138Z,26.13
2018-09-05T00:29:46.901Z,21.20
2018-09-05T00:32:15.670Z,22.50
2018-09-05T00:34:44.380Z,31.57
2018-09-05T00:37:13.314Z,25.37
2018-09-05T00:39:42.065Z,21.87
2018-09-05T00:42:10.852Z,20.83
2018-09-05T00:44:39.574Z,21.33
2018-09-05T00:47:08.298Z,22.93
2018-09-05T00:49:37.009Z,25.43
2018-09-05T00:52:05.800Z,18.40
2018-09-05T00:54:34.536Z,25.27
2018-09-05T00:57:03.262Z,19.50
2018-09-05T00:59:31.987Z,21.93
2018-09-05T01:02:00.649Z,27.17
2018-09-05T01:04:29.381Z,21.23
2018-09-05T01:06:58.200Z,22.43
2018-09-05T01:09:26.931Z,18.77
2018-09-05T01:12:01.703Z,23.20
2018-09-05T01:14:35.558Z,19.00
2018-09-05T01:17:09.899Z,20.77
2018-09-05T01:19:44.656Z,23.50
2018-09-05T01:22:17.800Z,23.07
2018-09-05T01:24:52.013Z,19.90
2018-09-05T01:27:25.553Z,21.83
2018-09-05T01:29:59.718Z,26.70
2018-09-05T01:32:33.709Z,23.30
2018-09-05T01:35:06.714Z,25.93
2018-09-05T01:37:39.649Z,22.70
2018-09-05T01:40:16.653Z,23.40
2018-09-05T01:42:53.103Z,22.13
2018-09-05T01:45:26.315Z,23.15
2018-09-05T01:47:59.735Z,19.70
2018-09-05T01:50:36.904Z,25.27
2018-09-05T01:53:11.285Z,26.17
2018-09-05T01:55:45.280Z,24.47
2018-09-05T01:58:18.972Z,24.77
2018-09-05T02:00:52.432Z,25.10
2018-09-05T02:03:26.564Z,22.60
2018-09-05T02:05:59.822Z,20.03
2018-09-05T02:08:33.691Z,26.60
2018-09-05T02:11:07.013Z,22.33
2018-09-05T02:13:40.145Z,23.55
2018-09-05T02:16:13.290Z,28.52
2018-09-05T02:18:47.935Z,25.17
2018-09-05T02:21:20.907Z,20.90
2018-09-05T02:23:53.801Z,27.00
2018-09-05T02:26:26.606Z,25.35
2018-09-05T02:29:02.845Z,22.00
2018-09-05T02:31:36.833Z,20.70
2018-09-05T02:34:11.994Z,27.75
2018-09-05T02:36:45.762Z,24.35
2018-09-05T02:39:23.379Z,26.45
2018-09-05T02:41:57.694Z,25.37
2018-09-05T02:44:30.982Z,22.67
2018-09-05T02:47:04.496Z,23.85
2018-09-05T02:49:38.466Z,22.20
2018-09-05T02:52:12.749Z,22.10
2018-09-05T02:54:46.826Z,28.93
2018-09-05T02:57:19.714Z,27.17
2018-09-05T02:59:52.643Z,20.48
2018-09-05T03:02:25.410Z,27.60
2018-09-05T03:04:59.211Z,25.55
2018-09-05T03:07:31.930Z,22.75
2018-09-05T03:10:13.432Z,29.30
2018-09-05T03:12:46.245Z,27.55
2018-09-05T03:15:17.694Z,27.07
2018-09-05T03:17:50.364Z,24.35
2018-09-05T03:20:23.084Z,23.85
2018-09-05T03:22:55.497Z,27.50
2018-09-05T03:25:27.823Z,25.10
2018-09-05T03:28:00.471Z,22.50
2018-09-05T03:30:32.707Z,26.05
2018-09-05T03:33:05.383Z,25.50
2018-09-05T03:35:38.180Z,25.70
2018-09-05T03:38:10.647Z,31.62
2018-09-05T03:40:44.276Z,30.10
2018-09-05T03:43:14.238Z,25.23
2018-09-05T03:45:44.728Z,22.82
2018-09-05T03:48:16.228Z,24.43
2018-09-05T03:50:48.210Z,23.75
2018-09-05T03:53:19.033Z,30.77
2018-09-05T03:55:52.707Z,26.10
2018-09-05T03:58:25.271Z,30.32
2018-09-05T04:00:56.996Z,34.70
2018-09-05T04:03:30.058Z,25.05
2018-09-05T04:05:58.890Z,25.72
2018-09-05T04:08:27.662Z,28.23
2018-09-05T04:10:56.398Z,25.32
2018-09-05T04:13:25.219Z,22.80
2018-09-05T04:15:53.998Z,28.57
2018-09-05T04:18:22.738Z,27.77
2018-09-05T04:20:51.722Z,26.27
2018-09-05T04:23:20.456Z,28.40
2018-09-05T04:25:49.213Z,29.48
2018-09-05T04:28:17.932Z,27.80
2018-09-05T04:30:46.661Z,29.23
2018-09-05T04:33:15.467Z,24.10
2018-09-05T04:35:44.294Z,25.52
2018-09-05T04:38:13.061Z,25.60
2018-09-05T04:40:41.904Z,26.40
2018-09-05T04:43:10.692Z,31.30
2018-09-05T04:45:39.457Z,30.60
2018-09-05T04:48:08.156Z,29.72
2018-09-05T04:50:37.051Z,30.27
2018-09-05T04:53:05.927Z,28.47
2018-09-05T04:55:34.830Z,25.60
2018-09-05T04:58:03.564Z,31.42
2018-09-05T05:00:32.297Z,26.87
2018-09-05T05:03:01.204Z,29.48
2018-09-05T05:05:30.006Z,29.50
2018-09-05T05:07:58.840Z,30.12
2018-09-05T05:10:27.547Z,33.78
2018-09-05T05:12:56.404Z,32.23
2018-09-05T05:15:25.167Z,29.48
2018-09-05T05:17:53.946Z,31.82
2018-09-05T05:20:22.811Z,35.58
2018-09-05T05:22:51.597Z,31.57
2018-09-05T05:25:20.313Z,30.17
2018-09-05T05:27:49.097Z,30.48
2018-09-05T05:30:17.837Z,34.88
2018-09-05T05:32:46.715Z,32.85
2018-09-05T05:35:15.438Z,36.10
2018-09-05T05:37:44.227Z,38.30
2018-09-05T05:40:12.972Z,31.42
2018-09-05T05:42:41.776Z,33.70
2018-09-05T05:45:10.529Z,35.00
2018-09-05T05:47:39.218Z,29.67
2018-09-05T05:50:08.125Z,31.30
2018-09-05T05:52:36.845Z,37.53
2018-09-05T05:55:05.707Z,34.10
2018-09-05T05:57:34.382Z,36.40
2018-09-05T06:00:03.105Z,34.40
2018-09-05T06:02:31.939Z,40.30
2018-09-05T06:05:00.667Z,45.73
2018-09-05T06:07:29.423Z,53.95
2018-09-05T06:09:58.171Z,40.17
2018-09-05T06:12:26.968Z,35.58
2018-09-05T06:14:55.699Z,36.95
2018-09-05T06:17:24.481Z,40.60
2018-09-05T06:19:53.220Z,40.45
2018-09-05T06:22:22.072Z,31.95
2018-09-05T06:24:50.824Z,36.50
2018-09-05T06:27:19.605Z,32.27
2018-09-05T06:29:48.450Z,40.07
2018-09-05T06:32:17.205Z,38.53
2018-09-05T06:34:45.987Z,39.83
2018-09-05T06:37:14.719Z,36.10
2018-09-05T06:39:44.312Z,55.52
2018-09-05T06:42:14.496Z,48.90
2018-09-05T06:44:43.320Z,44.53
2018-09-05T06:47:12.073Z,52.40
2018-09-05T06:49:40.957Z,47.57
2018-09-05T06:52:09.742Z,53.67
2018-09-05T06:54:38.552Z,52.77
2018-09-05T06:57:07.323Z,44.10
2018-09-05T06:59:36.186Z,52.97
2018-09-05T07:02:05.218Z,48.27
2018-09-05T07:04:34.006Z,47.80
2018-09-05T07:07:02.946Z,51.90
2018-09-05T07:09:31.941Z,41.93
2018-09-05T07:12:01.252Z,46.77
2018-09-05T07:14:30.049Z,63.40
2018-09-05T07:16:58.799Z,82.97
2018-09-05T07:19:27.684Z,68.30
2018-09-05T07:22:01.627Z,67.13
2018-09-05T07:24:30.309Z,50.67
2018-09-05T07:26:59.076Z,60.10
2018-09-05T07:29:27.821Z,52.23
2018-09-05T07:31:56.631Z,44.83
2018-09-05T07:34:25.412Z,52.37
2018-09-05T07:36:54.233Z,51.07
2018-09-05T07:39:22.954Z,57.30
2018-09-05T07:41:51.915Z,48.13
2018-09-05T07:44:20.747Z,50.20
2018-09-05T07:46:49.537Z,62.27
2018-09-05T07:49:21.029Z,49.17
2018-09-05T07:51:49.821Z,50.70
2018-09-05T07:54:18.581Z,59.20
2018-09-05T07:56:47.341Z,50.30
2018-09-05T07:59:16.262Z,58.43
2018-09-05T08:01:45.038Z,41.83
2018-09-05T08:04:13.838Z,43.83
2018-09-05T08:06:44.364Z,51.07
2018-09-05T08:09:13.148Z,52.03
2018-09-05T08:11:41.991Z,50.73
2018-09-05T08:14:10.849Z,51.70
2018-09-05T08:16:39.640Z,45.87
2018-09-05T08:19:08.437Z,45.33
2018-09-05T08:21:37.312Z,53.40
2018-09-05T08:24:06.156Z,44.70
2018-09-05T08:26:34.936Z,46.27
2018-09-05T08:29:03.816Z,45.80
2018-09-05T08:31:32.587Z,45.73
2018-09-05T08:34:01.389Z,45.93
2018-09-05T08:36:30.332Z,39.00
2018-09-05T08:38:59.409Z,52.43
2018-09-05T08:41:28.526Z,41.53
2018-09-05T08:43:59.399Z,39.37
2018-09-05T08:46:29.504Z,47.83
2018-09-05T08:48:58.871Z,39.57
2018-09-05T08:51:29.067Z,37.73
2018-09-05T08:54:01.325Z,40.53
2018-09-05T08:56:31.004Z,35.20
2018-09-05T08:59:00.842Z,30.80
2018-09-05T09:01:31.669Z,36.13
2018-09-05T09:04:00.508Z,31.67
2018-09-05T09:06:31.663Z,38.50
2018-09-05T09:09:01.352Z,35.03
2018-09-05T09:11:32.886Z,43.20
2018-09-05T09:14:06.801Z,49.03
2018-09-05T09:16:35.777Z,31.77
2018-09-05T09:19:04.841Z,37.57
2018-09-05T09:21:33.703Z,36.10
2018-09-05T09:24:24.227Z,32.40
2018-09-05T09:26:53.474Z,34.70
2018-09-05T09:29:22.352Z,37.70
2018-09-05T09:31:51.182Z,35.90
2018-09-05T09:34:19.993Z,32.33
2018-09-05T09:36:48.783Z,30.10
2018-09-05T09:39:17.589Z,30.73
2018-09-05T09:41:46.286Z,47.40
2018-09-05T09:44:15.057Z,39.90
2018-09-05T09:46:43.858Z,34.60
2018-09-05T09:49:12.444Z,45.23
2018-09-05T09:51:41.217Z,34.70
2018-09-05T09:54:10.001Z,29.53
2018-09-05T09:56:38.852Z,27.80
2018-09-05T09:59:07.526Z,34.53
2018-09-05T10:01:41.605Z,34.10
2018-09-05T10:04:16.011Z,34.73
2018-09-05T10:06:54.999Z,31.00
2018-09-05T10:11:32.782Z,26.53
2018-09-05T10:14:06.741Z,34.93
2018-09-05T10:16:44.796Z,34.40
2018-09-05T10:19:13.817Z,45.50
2018-09-05T10:21:42.624Z,38.43
2018-09-05T10:24:11.369Z,25.73
2018-09-05T10:26:40.094Z,28.70
2018-09-05T10:29:08.907Z,29.93
2018-09-05T10:31:38.675Z,25.37
2018-09-05T10:34:07.913Z,29.70
2018-09-05T10:36:36.727Z,38.13
2018-09-05T10:39:08.178Z,28.00
2018-09-05T10:41:36.913Z,33.20
2018-09-05T10:44:06.054Z,32.23
2018-09-05T10:46:35.022Z,32.80
2018-09-05T10:49:03.895Z,32.67
2018-09-05T10:51:37.992Z,32.00
2018-09-05T10:54:07.024Z,35.43
2018-09-05T10:56:36.480Z,29.30
2018-09-05T10:59:05.282Z,27.73
2018-09-05T11:01:33.988Z,28.20
2018-09-05T11:04:02.829Z,35.20
2018-09-05T11:06:31.544Z,25.10
2018-09-05T11:09:00.302Z,22.03
2018-09-05T11:11:29.085Z,22.80
2018-09-05T11:13:57.750Z,38.57
2018-09-05T11:16:26.558Z,23.40
2018-09-05T11:18:55.256Z,28.27
2018-09-05T11:21:27.167Z,36.13
2018-09-05T11:23:57.587Z,20.70
2018-09-05T11:26:26.343Z,23.37
2018-09-05T11:28:55.223Z,20.40
2018-09-05T11:31:23.949Z,38.73
2018-09-05T11:33:52.672Z,19.60
2018-09-05T11:36:21.653Z,25.23
2018-09-05T11:38:50.550Z,18.13
2018-09-05T11:41:19.389Z,25.53
2018-09-05T11:43:48.512Z,24.43
2018-09-05T11:46:17.245Z,22.57
2018-09-05T11:48:46.008Z,36.53
2018-09-05T11:51:15.034Z,27.20
2018-09-05T11:53:43.747Z,21.47
2018-09-05T11:56:12.514Z,18.47
2018-09-05T11:58:41.210Z,20.53
2018-09-05T12:01:09.959Z,28.10
2018-09-05T12:03:38.623Z,24.83
2018-09-05T12:06:07.542Z,22.50
2018-09-05T12:08:36.394Z,22.53
2018-09-05T12:11:05.060Z,20.77
2018-09-05T12:13:33.774Z,17.90
2018-09-05T12:16:02.588Z,23.57
2018-09-05T12:18:31.365Z,24.93
2018-09-05T12:21:00.015Z,18.90
2018-09-05T12:23:29.074Z,19.73
2018-09-05T12:25:57.794Z,22.03
2018-09-05T12:28:26.542Z,22.87
2018-09-05T12:30:55.299Z,18.60
2018-09-05T12:33:24.053Z,20.00
2018-09-05T12:35:52.811Z,26.97
2018-09-05T12:38:21.576Z,19.37
2018-09-05T12:40:50.183Z,18.77
2018-09-05T12:43:18.918Z,24.43
2018-09-05T12:45:47.655Z,24.80
2018-09-05T12:48:18.516Z,22.13
2018-09-05T12:50:47.363Z,18.83
2018-09-05T12:53:16.051Z,19.53
2018-09-05T12:56:19.854Z,19.13
2018-09-05T12:58:48.605Z,22.90
2018-09-05T13:01:17.472Z,22.87
2018-09-05T13:03:46.217Z,19.20
2018-09-05T13:06:14.941Z,22.10
2018-09-05T13:08:43.745Z,19.13
2018-09-05T13:11:12.551Z,18.67
2018-09-05T13:13:41.499Z,18.67
2018-09-05T13:16:10.338Z,24.10
2018-09-05T13:18:39.120Z,22.20
2018-09-05T13:21:07.907Z,20.70
2018-09-05T13:23:36.662Z,21.63
2018-09-05T13:26:05.450Z,22.93
2018-09-05T13:28:34.194Z,22.17
2018-09-05T13:31:02.887Z,18.17
2018-09-05T13:33:31.654Z,14.97
2018-09-05T13:36:00.474Z,17.50
2018-09-05T13:38:31.369Z,19.70
2018-09-05T13:41:02.350Z,14.77
2018-09-05T13:43:31.114Z,23.50
2018-09-05T13:45:59.873Z,17.90
2018-09-05T13:48:28.685Z,22.83
2018-09-05T13:50:57.528Z,21.63
2018-09-05T13:53:26.261Z,17.90
2018-09-05T13:55:55.193Z,27.03
2018-09-05T13:58:23.946Z,18.30
2018-09-05T14:00:52.721Z,19.17
2018-09-05T14:03:21.585Z,21.33
2018-09-05T14:05:50.458Z,16.90
2018-09-05T14:08:19.282Z,17.43
2018-09-05T14:10:48.245Z,17.03
2018-09-05T14:13:16.973Z,19.50
2018-09-05T14:15:45.711Z,16.70
2018-09-05T14:18:14.657Z,16.60
2018-09-05T14:20:43.469Z,17.60
2018-09-05T14:23:12.197Z,18.47
2018-09-05T14:25:40.878Z,25.80
2018-09-05T14:28:09.719Z,23.40
2018-09-05T14:30:38.512Z,21.20
2018-09-05T14:33:06.892Z,19.80
2018-09-05T14:35:35.672Z,21.20
2018-09-05T14:38:04.450Z,19.03
2018-09-05T14:40:33.345Z,26.07
2018-09-05T14:43:02.173Z,16.40
2018-09-05T14:45:31.113Z,19.53
2018-09-05T14:47:59.898Z,20.83
2018-09-05T14:50:28.637Z,17.23
2018-09-05T14:52:57.312Z,23.23
2018-09-05T14:55:26.003Z,22.43
2018-09-05T14:57:54.755Z,20.43
2018-09-05T15:00:23.494Z,19.97
2018-09-05T15:02:52.254Z,38.30
2018-09-05T15:05:20.954Z,26.60
2018-09-05T15:07:50.693Z,20.20
2018-09-05T15:10:19.451Z,39.90
2018-09-05T15:12:48.218Z,17.97
2018-09-05T15:15:17.406Z,17.80
2018-09-05T15:17:46.267Z,18.20
2018-09-05T15:20:15.117Z,19.93
2018-09-05T15:22:44.849Z,19.67
2018-09-05T15:25:13.576Z,18.77
2018-09-05T15:27:42.282Z,16.23
2018-09-05T15:30:11.186Z,20.03
2018-09-05T15:32:39.932Z,20.50
2018-09-05T15:35:08.673Z,17.93
2018-09-05T15:37:37.372Z,16.13
2018-09-05T15:40:06.318Z,15.23
2018-09-05T15:42:35.061Z,23.93
2018-09-05T15:45:03.828Z,16.17
2018-09-05T15:47:32.676Z,18.87
2018-09-05T15:50:01.449Z,21.47
2018-09-05T15:52:30.162Z,15.53
2018-09-05T15:54:58.947Z,17.33
2018-09-05T15:57:27.804Z,20.43
2018-09-05T15:59:56.524Z,14.87
2018-09-05T16:02:25.277Z,16.07
2018-09-05T16:04:54.059Z,19.97
2018-09-05T16:07:22.834Z,19.43
2018-09-05T16:09:51.601Z,22.87
2018-09-05T16:12:20.410Z,16.40
2018-09-05T16:14:49.221Z,19.70
2018-09-05T16:17:18.027Z,16.10
2018-09-05T16:19:46.800Z,18.73
2018-09-05T16:22:15.765Z,16.07
2018-09-05T16:24:44.409Z,17.70
2018-09-05T16:27:13.101Z,17.17
2018-09-05T16:29:41.919Z,17.17
2018-09-05T16:32:10.600Z,15.27
2018-09-05T16:34:39.284Z,18.00
2018-09-05T16:37:07.953Z,14.20
2018-09-05T16:39:36.685Z,14.93
2018-09-05T16:42:05.442Z,29.70
2018-09-05T16:44:34.144Z,21.20
2018-09-05T16:47:02.845Z,19.63
2018-09-05T16:49:31.754Z,13.87
2018-09-05T16:52:00.410Z,18.43
2018-09-05T16:54:29.159Z,16.83
2018-09-05T16:56:57.887Z,20.77
2018-09-05T16:59:26.617Z,17.70
2018-09-05T17:01:55.341Z,19.77
2018-09-05T17:04:24.040Z,17.37
2018-09-05T17:06:52.856Z,25.83
2018-09-05T17:09:21.570Z,15.03
2018-09-05T17:11:50.341Z,16.90
2018-09-05T17:14:19.027Z,19.10
2018-09-05T17:16:47.689Z,18.97
2018-09-05T17:19:16.433Z,22.27
2018-09-05T17:21:45.130Z,17.47
2018-09-05T17:24:13.849Z,18.97
2018-09-05T17:26:42.542Z,19.57
2018-09-05T17:29:11.229Z,17.40
2018-09-05T17:31:40.081Z,18.77
2018-09-05T17:34:09.033Z,17.57
2018-09-05T17:36:37.775Z,25.43
2018-09-05T17:39:08.861Z,19.27
2018-09-05T17:41:37.605Z,16.53
2018-09-05T17:44:06.696Z,16.23
2018-09-05T17:46:35.484Z,17.17
2018-09-05T17:49:04.355Z,26.97
2018-09-05T17:51:33.219Z,15.27
2018-09-05T17:54:02.103Z,14.83
2018-09-05T17:56:30.921Z,17.50
2018-09-05T17:59:05.048Z,18.07
2018-09-05T18:01:34.019Z,26.10
2018-09-05T18:04:02.701Z,20.33
2018-09-05T18:06:31.603Z,27.50
2018-09-05T18:09:00.339Z,20.07
2018-09-05T18:11:29.050Z,23.70
2018-09-05T18:13:57.757Z,18.90
2018-09-05T18:16:26.487Z,21.17
2018-09-05T18:18:55.284Z,18.73
2018-09-05T18:21:24.069Z,23.13
2018-09-05T18:23:54.437Z,23.10
2018-09-05T18:26:23.283Z,16.33
2018-09-05T18:28:52.109Z,19.60
2018-09-05T18:31:20.952Z,21.03
2018-09-05T18:33:51.893Z,21.97
2018-09-05T18:36:22.791Z,22.40
2018-09-05T18:38:51.574Z,30.47
2018-09-05T18:41:20.300Z,22.03
2018-09-05T18:43:49.063Z,20.30
2018-09-05T18:46:17.734Z,19.73
2018-09-05T18:48:46.439Z,20.40
2018-09-05T18:51:15.187Z,26.17
2018-09-05T18:53:43.885Z,27.73
2018-09-05T18:56:12.651Z,31.50
2018-09-05T18:58:41.401Z,23.80
2018-09-05T19:01:10.152Z,23.20
2018-09-05T19:03:38.980Z,22.20
2018-09-05T19:06:07.691Z,20.67
2018-09-05T19:08:36.509Z,26.90
2018-09-05T19:11:05.319Z,21.17
2018-09-05T19:13:34.125Z,28.07
2018-09-05T19:16:02.974Z,23.87
2018-09-05T19:18:31.799Z,21.70
2018-09-05T19:21:00.539Z,23.90
2018-09-05T19:23:29.401Z,21.37
2018-09-05T19:25:58.128Z,25.00
2018-09-05T19:28:26.931Z,26.07
2018-09-05T19:30:55.649Z,28.53
2018-09-05T19:33:24.403Z,20.97
2018-09-05T19:35:53.104Z,20.90
2018-09-05T19:38:21.829Z,24.40
2018-09-05T19:40:50.562Z,36.47
2018-09-05T19:43:19.268Z,36.33
2018-09-05T19:45:48.038Z,26.57
2018-09-05T19:48:16.791Z,25.03
2018-09-05T19:50:45.609Z,23.57
2018-09-05T19:53:14.400Z,20.53
2018-09-05T19:55:43.199Z,25.63
2018-09-05T19:58:11.901Z,26.17
2018-09-05T20:00:40.611Z,22.87
2018-09-05T20:03:14.686Z,30.03
2018-09-05T20:05:48.600Z,24.93
2018-09-05T20:08:17.318Z,32.40
2018-09-05T20:10:45.963Z,22.30
2018-09-05T20:13:14.812Z,28.63
2018-09-05T20:15:43.598Z,25.20
2018-09-05T20:18:12.578Z,28.93
2018-09-05T20:20:41.342Z,23.07
2018-09-05T20:23:10.185Z,24.53
2018-09-05T20:25:38.950Z,21.43
2018-09-05T20:28:07.736Z,20.07
2018-09-05T20:30:36.457Z,25.90
2018-09-05T20:33:05.287Z,20.70
2018-09-05T20:35:33.975Z,22.97
2018-09-05T20:38:02.785Z,32.30
2018-09-05T20:40:31.498Z,30.37
2018-09-05T20:43:00.220Z,26.53
2018-09-05T20:45:28.950Z,25.73
2018-09-05T20:47:57.755Z,29.07
2018-09-05T20:50:26.466Z,27.40
2018-09-05T20:52:55.161Z,27.17
2018-09-05T20:55:23.907Z,24.07
2018-09-05T20:57:52.629Z,24.03
2018-09-05T21:00:21.372Z,27.97
2018-09-05T21:02:50.021Z,27.70
2018-09-05T21:05:18.745Z,29.40
2018-09-05T21:07:47.453Z,23.77
2018-09-05T21:10:16.163Z,23.20
2018-09-05T21:12:44.916Z,26.57
2018-09-05T21:15:13.701Z,26.83
2018-09-05T21:17:42.445Z,25.93
2018-09-05T21:20:11.206Z,27.20
2018-09-05T21:22:39.934Z,24.67
2018-09-05T21:25:08.700Z,22.90
2018-09-05T21:27:37.405Z,34.87
2018-09-05T21:30:06.121Z,25.63
2018-09-05T21:32:34.834Z,28.30
2018-09-05T21:35:03.597Z,31.90
2018-09-05T21:37:32.314Z,28.00
2018-09-05T21:40:01.134Z,30.00
2018-09-05T21:42:29.873Z,28.00
2018-09-05T21:44:58.622Z,32.20
2018-09-05T21:47:27.370Z,29.70
2018-09-05T21:49:56.146Z,36.13
2018-09-05T21:52:24.859Z,28.13
2018-09-05T21:54:53.619Z,26.07
2018-09-05T21:57:22.288Z,29.00
2018-09-05T21:59:51.013Z,28.63
2018-09-05T22:02:19.700Z,28.50
2018-09-05T22:04:48.366Z,29.80
2018-09-05T22:07:17.086Z,37.67
2018-09-05T22:09:45.749Z,27.70
2018-09-05T22:12:23.056Z,37.73
2018-09-05T22:14:51.702Z,33.00
2018-09-05T22:17:20.448Z,41.73
2018-09-05T22:19:49.097Z,23.97
2018-09-05T22:22:17.849Z,25.00
2018-09-05T22:24:46.606Z,33.93
2018-09-05T22:27:15.317Z,30.23
2018-09-05T22:29:44.047Z,31.13
2018-09-05T22:32:12.812Z,30.53
2018-09-05T22:34:41.512Z,29.50
2018-09-05T22:37:10.183Z,28.50
2018-09-05T22:39:38.925Z,33.40
2018-09-05T22:42:07.633Z,34.43
2018-09-05T22:44:47.398Z,28.43
2018-09-05T22:47:27.307Z,30.27
2018-09-05T22:50:15.129Z,32.53
2018-09-05T22:55:00.778Z,28.27
2018-09-05T22:58:03.485Z,26.87
2018-09-05T23:00:43.635Z,30.07
2018-09-05T23:03:23.387Z,29.33
2018-09-05T23:07:04.654Z,27.90
2018-09-05T23:09:44.596Z,29.60
2018-09-05T23:12:26.459Z,29.93
2018-09-05T23:15:07.072Z,26.97
2018-09-05T23:19:53.411Z,32.80
2018-09-05T23:22:22.253Z,30.20
2018-09-05T23:24:50.935Z,27.43
2018-09-05T23:27:19.695Z,28.70
2018-09-05T23:29:48.438Z,32.10
2018-09-05T23:32:17.143Z,30.00
2018-09-05T23:34:45.834Z,29.03
2018-09-05T23:37:14.577Z,30.87
2018-09-05T23:39:43.266Z,33.43
2018-09-05T23:42:12.007Z,27.30
2018-09-05T23:44:40.687Z,30.43
2018-09-05T23:47:09.440Z,26.60
2018-09-05T23:49:38.113Z,25.30
2018-09-05T23:52:06.869Z,32.57
2018-09-05T23:54:35.603Z,31.27
2018-09-05T23:57:04.370Z,26.97
2018-09-05T23:59:33.068Z,26.70
